Time;durP1;ratioP1;P1;durP2;ratioP2;P2;SDS_P1;SDS_P2;PMS_P1;PMS_P2;Temp;Humidity;BMP_temperature;BMP_pressure;BME280_temperature;BME280_humidity;BME280_pressure;Samples;Min_cycle;Max_cycle;Signal;HPM_P1;HPM_P2
2023/06/27 00:00:30;;;;;;;7.30;3.15;;;14.70;84.50;;;;;;5017332;28;20413;-46
2023/06/27 00:02:58;;;;;;;7.25;3.28;;;14.70;84.80;;;;;;5034649;28;20090;-48
2023/06/27 00:05:25;;;;;;;9.10;2.92;;;14.70;85.00;;;;;;5034921;28;20026;-46
2023/06/27 00:07:54;;;;;;;12.70;4.13;;;14.70;85.30;;;;;;5033705;28;20676;-45
2023/06/27 00:10:20;;;;;;;8.93;2.88;;;14.70;85.30;;;;;;5034670;28;20029;-47
2023/06/27 00:12:46;;;;;;;11.05;3.13;;;14.60;85.40;;;;;;5052065;28;20106;-46
2023/06/27 00:15:13;;;;;;;16.35;3.47;;;14.60;85.30;;;;;;5054298;28;20029;-45
2023/06/27 00:17:47;;;;;;;9.07;3.13;;;14.60;85.50;;;;;;5036722;28;20029;-48
2023/06/27 00:20:13;;;;;;;6.93;3.15;;;14.60;85.60;;;;;;5054267;28;20049;-49
2023/06/27 00:22:40;;;;;;;11.48;3.97;;;14.60;85.40;;;;;;5054217;28;20107;-46
2023/06/27 00:25:10;;;;;;;11.63;3.05;;;14.60;85.50;;;;;;5054365;28;20039;-50
2023/06/27 00:27:37;;;;;;;11.50;3.90;;;14.50;85.50;;;;;;5054428;28;20033;-45
2023/06/27 00:30:11;;;;;;;11.38;3.88;;;14.50;85.50;;;;;;5054201;28;20020;-46
2023/06/27 00:32:37;;;;;;;9.82;3.10;;;14.50;85.60;;;;;;5054257;28;20024;-45
2023/06/27 00:35:09;;;;;;;9.13;3.38;;;14.50;85.70;;;;;;5053577;28;20027;-46
2023/06/27 00:37:41;;;;;;;11.20;3.50;;;14.50;85.70;;;;;;5054003;28;20339;-44
2023/06/27 00:40:18;;;;;;;7.00;3.45;;;14.40;85.80;;;;;;5054129;28;20112;-45
2023/06/27 00:42:46;;;;;;;10.70;2.70;;;14.50;86.10;;;;;;5036237;28;20083;-44
2023/06/27 00:45:15;;;;;;;6.75;3.63;;;14.50;86.00;;;;;;5053852;28;20021;-45
2023/06/27 00:47:41;;;;;;;11.13;3.35;;;14.50;85.90;;;;;;5053813;28;20029;-46
2023/06/27 00:50:09;;;;;;;5.68;2.55;;;14.50;86.00;;;;;;5053744;28;20376;-49
2023/06/27 00:52:38;;;;;;;6.30;3.22;;;14.50;86.10;;;;;;5053698;28;20412;-45
2023/06/27 00:55:07;;;;;;;8.65;3.65;;;14.50;86.10;;;;;;5053685;28;20465;-46
2023/06/27 00:57:33;;;;;;;9.95;3.40;;;14.50;86.10;;;;;;5050502;28;20120;-47
2023/06/27 01:00:00;;;;;;;8.80;2.97;;;14.50;86.20;;;;;;5052586;28;20123;-45
2023/06/27 01:02:28;;;;;;;10.35;3.83;;;14.50;86.20;;;;;;5052473;28;20028;-45
2023/06/27 01:05:03;;;;;;;10.10;3.30;;;14.50;86.10;;;;;;5052745;28;20029;-48
2023/06/27 01:07:58;;;;;;;7.07;2.92;;;14.50;86.10;;;;;;5053141;28;20430;-45
2023/06/27 01:10:52;;;;;;;12.77;4.15;;;14.50;86.10;;;;;;5053261;28;20406;-46
2023/06/27 01:13:36;;;;;;;13.20;3.83;;;14.40;86.20;;;;;;5032306;28;20046;-46
2023/06/27 01:16:05;;;;;;;8.52;2.92;;;14.40;86.20;;;;;;5033155;28;20037;-46
2023/06/27 01:18:35;;;;;;;9.30;3.05;;;14.50;86.20;;;;;;5015977;28;20059;-45
2023/06/27 01:21:08;;;;;;;14.68;3.78;;;14.40;86.10;;;;;;5033362;28;20395;-45
2023/06/27 01:23:48;;;;;;;7.00;3.17;;;14.40;86.20;;;;;;5033185;28;20025;-47
2023/06/27 01:26:16;;;;;;;11.15;3.92;;;14.40;86.20;;;;;;5033121;28;20021;-45
2023/06/27 01:28:44;;;;;;;7.30;3.45;;;14.40;86.20;;;;;;5033420;28;20507;-45
2023/06/27 01:31:37;;;;;;;9.05;3.22;;;14.40;86.30;;;;;;5033420;28;20128;-45
2023/06/27 01:34:27;;;;;;;7.82;3.47;;;14.40;86.30;;;;;;5018465;28;20033;-46
2023/06/27 01:37:08;;;;;;;;;;;14.40;86.40;;;;;;5033491;28;20046;-48
2023/06/27 01:39:56;;;;;;;10.75;3.20;;;14.40;86.50;;;;;;5033285;28;20307;-45
2023/06/27 01:42:32;;;;;;;11.52;3.80;;;14.40;86.50;;;;;;5015550;28;20037;-46
2023/06/27 01:45:00;;;;;;;9.32;4.03;;;14.40;86.40;;;;;;5015669;28;20021;-45
2023/06/27 01:47:33;;;;;;;10.93;4.22;;;14.40;86.20;;;;;;5032206;28;20033;-45
2023/06/27 01:50:02;;;;;;;7.38;3.88;;;14.40;86.40;;;;;;5033088;28;20021;-45
2023/06/27 01:52:29;;;;;;;7.80;3.83;;;14.40;86.50;;;;;;4999005;28;20044;-44
2023/06/27 01:54:59;;;;;;;7.50;3.42;;;14.40;86.30;;;;;;5032227;28;20022;-44
2023/06/27 01:57:29;;;;;;;8.77;3.65;;;14.40;86.40;;;;;;5032596;28;20041;-45
2023/06/27 01:59:56;;;;;;;8.65;3.55;;;14.40;86.30;;;;;;5032472;28;20036;-45
2023/06/27 02:02:23;;;;;;;7.53;3.70;;;14.40;86.30;;;;;;5014996;28;20030;-43
2023/06/27 02:04:49;;;;;;;9.80;3.65;;;14.40;86.30;;;;;;5032299;28;20030;-44
2023/06/27 02:07:18;;;;;;;8.80;2.97;;;14.40;86.40;;;;;;5032057;28;20033;-44
2023/06/27 02:09:43;;;;;;;6.35;3.70;;;14.50;86.40;;;;;;5031840;28;20036;-45
2023/06/27 02:12:11;;;;;;;9.13;3.97;;;14.50;86.30;;;;;;5026246;28;20045;-45
2023/06/27 02:14:42;;;;;;;9.43;4.18;;;14.60;86.40;;;;;;5052581;28;20036;-46
2023/06/27 02:17:09;;;;;;;12.20;4.53;;;14.60;86.30;;;;;;5034208;28;20044;-45
2023/06/27 02:19:36;;;;;;;11.10;4.38;;;14.60;86.20;;;;;;5051578;28;20025;-41
2023/06/27 02:22:02;;;;;;;8.85;4.70;;;14.60;86.40;;;;;;5018341;28;20037;-47
2023/06/27 02:24:32;;;;;;;6.95;4.70;;;14.70;86.60;;;;;;5052045;28;20458;-46
2023/06/27 02:27:00;;;;;;;7.40;4.37;;;14.70;86.70;;;;;;5052676;28;20033;-48
2023/06/27 02:29:28;;;;;;;9.68;4.97;;;14.70;87.20;;;;;;5052537;28;20037;-47
2023/06/27 02:31:56;;;;;;;7.47;4.72;;;14.70;87.40;;;;;;5034821;28;20040;-45
2023/06/27 02:34:24;;;;;;;11.52;4.82;;;14.70;87.60;;;;;;5034425;28;20028;-48
2023/06/27 02:36:54;;;;;;;8.85;4.40;;;14.70;87.60;;;;;;5035198;28;20047;-46
2023/06/27 02:39:21;;;;;;;11.43;5.18;;;14.70;87.70;;;;;;5052376;28;20362;-47
2023/06/27 02:41:50;;;;;;;10.38;4.45;;;14.70;87.80;;;;;;5052314;28;20040;-45
2023/06/27 02:44:18;;;;;;;16.07;5.20;;;14.70;87.80;;;;;;5052124;28;20459;-45
2023/06/27 02:46:46;;;;;;;9.90;4.40;;;14.70;87.70;;;;;;5052366;28;20593;-45
2023/06/27 02:49:17;;;;;;;9.00;4.15;;;14.70;87.80;;;;;;5034731;28;20037;-45
2023/06/27 02:51:42;;;;;;;11.10;4.88;;;14.60;87.70;;;;;;5052147;28;20036;-44
2023/06/27 02:54:10;;;;;;;6.75;3.85;;;14.60;87.60;;;;;;5052107;28;20353;-45
2023/06/27 02:56:40;;;;;;;11.48;4.50;;;14.50;87.60;;;;;;5052266;28;20032;-44
2023/06/27 02:59:08;;;;;;;;;;;14.50;87.60;;;;;;5053383;28;20033;-45
2023/06/27 03:01:35;;;;;;;8.40;5.20;;;14.40;87.80;;;;;;5055816;28;19908;-45
2023/06/27 03:04:04;;;;;;;8.02;4.25;;;14.40;87.80;;;;;;5055422;28;20087;-45
2023/06/27 03:06:33;;;;;;;9.48;4.68;;;14.40;87.80;;;;;;5053823;28;20064;-44
2023/06/27 03:09:00;;;;;;;11.02;4.50;;;14.40;87.80;;;;;;5055427;28;20048;-46
2023/06/27 03:11:27;;;;;;;6.63;4.38;;;14.40;87.90;;;;;;5055399;28;20107;-45
2023/06/27 03:13:56;;;;;;;10.00;4.35;;;14.40;87.90;;;;;;5055705;28;20028;-47
2023/06/27 03:16:25;;;;;;;6.40;4.80;;;14.40;87.90;;;;;;5055423;28;20053;-44
2023/06/27 03:18:51;;;;;;;9.20;3.80;;;14.40;88.10;;;;;;5055254;28;20067;-45
2023/06/27 03:21:20;;;;;;;9.63;3.90;;;14.40;88.20;;;;;;5054491;28;20037;-44
2023/06/27 03:23:48;;;;;;;9.98;4.82;;;14.30;88.10;;;;;;5055374;28;20053;-44
2023/06/27 03:26:14;;;;;;;6.80;4.40;;;14.40;88.30;;;;;;5055249;28;20032;-44
2023/06/27 03:28:44;;;;;;;11.50;4.07;;;14.40;88.40;;;;;;5037788;28;20121;-44
2023/06/27 03:31:11;;;;;;;7.30;3.90;;;14.40;88.40;;;;;;5055297;28;20052;-44
2023/06/27 03:33:38;;;;;;;6.97;4.13;;;14.40;88.20;;;;;;5055341;28;20094;-44
2023/06/27 03:36:05;;;;;;;9.38;4.45;;;14.40;88.20;;;;;;5055167;28;20334;-44
2023/06/27 03:38:31;;;;;;;10.77;5.05;;;14.40;88.10;;;;;;5055064;28;20363;-44
2023/06/27 03:40:58;;;;;;;11.13;4.43;;;14.40;88.20;;;;;;5054894;28;20048;-44
2023/06/27 03:43:25;;;;;;;8.35;4.13;;;14.40;88.20;;;;;;5055098;28;20104;-44
2023/06/27 03:45:52;;;;;;;8.02;4.80;;;14.40;88.20;;;;;;5055277;28;20112;-44
2023/06/27 03:48:21;;;;;;;7.80;3.95;;;14.40;87.90;;;;;;5055123;28;20435;-44
2023/06/27 03:50:47;;;;;;;7.47;4.50;;;14.40;88.00;;;;;;5054734;28;20048;-45
2023/06/27 03:53:14;;;;;;;7.85;4.60;;;14.40;87.90;;;;;;5036824;28;20629;-45
2023/06/27 03:55:41;;;;;;;8.85;4.07;;;14.30;87.80;;;;;;5054811;28;20458;-44
2023/06/27 03:58:10;;;;;;;9.40;3.80;;;14.30;87.90;;;;;;5054904;28;20025;-44
2023/06/27 04:00:37;;;;;;;9.50;5.28;;;14.30;87.90;;;;;;5054734;28;20029;-44
2023/06/27 04:03:03;;;;;;;9.13;4.28;;;14.30;87.90;;;;;;5054662;28;20064;-43
2023/06/27 04:05:30;;;;;;;10.63;4.03;;;14.30;87.90;;;;;;5053629;28;20071;-44
2023/06/27 04:07:57;;;;;;;10.90;4.80;;;14.30;87.80;;;;;;5054538;28;20041;-43
2023/06/27 04:10:28;;;;;;;8.45;4.10;;;14.30;87.80;;;;;;5053902;28;20381;-44
2023/06/27 04:12:57;;;;;;;9.93;4.65;;;14.30;87.70;;;;;;5036823;28;20440;-48
2023/06/27 04:15:24;;;;;;;9.05;5.32;;;14.20;87.70;;;;;;5017004;28;20033;-44
2023/06/27 04:17:51;;;;;;;7.13;4.22;;;14.30;87.70;;;;;;5034524;28;20355;-43
2023/06/27 04:20:18;;;;;;;9.88;4.93;;;14.30;87.70;;;;;;5034440;28;20071;-44
2023/06/27 04:22:48;;;;;;;6.55;4.38;;;14.30;87.80;;;;;;5034248;28;20355;-45
2023/06/27 04:25:13;;;;;;;8.93;4.95;;;14.30;87.90;;;;;;5034225;28;20061;-44
2023/06/27 04:27:39;;;;;;;7.53;4.28;;;14.30;88.00;;;;;;5034497;28;20080;-46
2023/06/27 04:30:09;;;;;;;7.95;4.22;;;14.30;88.00;;;;;;5034055;28;20025;-43
2023/06/27 04:32:37;;;;;;;;;;;14.30;88.10;;;;;;5034761;28;20395;-44
2023/06/27 04:35:04;;;;;;;6.55;3.90;;;14.40;88.30;;;;;;5034361;28;19916;-43
2023/06/27 04:37:32;;;;;;;12.75;4.40;;;14.40;88.30;;;;;;5032352;28;20057;-43
2023/06/27 04:39:59;;;;;;;13.65;4.22;;;14.40;88.40;;;;;;5033952;28;20025;-42
2023/06/27 04:42:26;;;;;;;11.90;5.28;;;14.40;88.60;;;;;;5034200;28;20032;-43
2023/06/27 04:44:55;;;;;;;8.10;4.28;;;14.40;88.60;;;;;;5034094;28;20086;-45
2023/06/27 04:47:25;;;;;;;11.50;4.88;;;14.40;88.90;;;;;;5034074;28;20394;-45
2023/06/27 04:49:56;;;;;;;9.00;4.47;;;14.50;88.70;;;;;;5033865;28;20033;-44
2023/06/27 04:52:24;;;;;;;13.10;4.80;;;14.50;88.90;;;;;;5032986;28;20029;-43
2023/06/27 04:54:55;;;;;;;14.73;4.15;;;14.50;88.70;;;;;;5033864;28;20057;-43
2023/06/27 04:57:22;;;;;;;11.48;4.72;;;14.50;88.90;;;;;;5034020;28;20032;-44
2023/06/27 04:59:49;;;;;;;7.55;4.15;;;14.60;88.80;;;;;;5031484;28;20121;-43
2023/06/27 05:02:15;;;;;;;8.68;4.80;;;14.60;88.40;;;;;;5032653;28;20044;-43
2023/06/27 05:04:41;;;;;;;13.68;4.13;;;14.70;88.50;;;;;;5033562;28;20071;-43
2023/06/27 05:07:11;;;;;;;13.43;4.50;;;14.80;88.40;;;;;;5033716;28;20060;-43
2023/06/27 05:09:39;;;;;;;10.95;4.72;;;14.80;88.20;;;;;;5032634;28;20033;-45
2023/06/27 05:12:05;;;;;;;7.47;3.83;;;14.90;88.10;;;;;;5043660;28;20041;-43
2023/06/27 05:14:32;;;;;;;7.72;4.50;;;14.90;88.00;;;;;;5053403;28;20099;-43
2023/06/27 05:17:03;;;;;;;7.32;3.78;;;14.90;87.90;;;;;;5053296;28;20450;-43
2023/06/27 05:19:30;;;;;;;8.25;4.40;;;14.90;87.90;;;;;;5053176;28;20411;-44
2023/06/27 05:21:58;;;;;;;10.43;4.18;;;15.00;87.90;;;;;;5052085;28;20048;-45
2023/06/27 05:24:25;;;;;;;9.23;5.15;;;15.00;88.00;;;;;;5053159;28;20040;-44
2023/06/27 05:26:52;;;;;;;10.85;5.20;;;15.10;88.00;;;;;;5053053;28;20021;-43
2023/06/27 05:29:18;;;;;;;13.98;4.13;;;15.00;88.10;;;;;;5053169;28;20040;-42
2023/06/27 05:31:45;;;;;;;9.68;4.20;;;15.20;88.20;;;;;;5052098;28;20035;-44
2023/06/27 05:34:13;;;;;;;8.27;3.97;;;15.20;88.20;;;;;;5052956;28;20347;-44
2023/06/27 05:36:43;;;;;;;7.80;3.53;;;15.30;88.30;;;;;;5052837;28;20362;-43
2023/06/27 05:39:10;;;;;;;;;;;15.40;88.30;;;;;;5052141;28;20060;-44
2023/06/27 05:41:40;;;;;;;16.40;4.85;;;15.40;88.40;;;;;;5035187;28;20362;-43
2023/06/27 05:44:09;;;;;;;12.07;4.28;;;15.50;88.60;;;;;;5052902;28;20115;-42
2023/06/27 05:46:39;;;;;;;10.13;5.07;;;15.70;88.80;;;;;;5053083;28;20025;-42
2023/06/27 05:49:07;;;;;;;9.13;4.03;;;15.90;88.80;;;;;;5051971;28;20025;-42
2023/06/27 05:51:34;;;;;;;13.05;5.03;;;16.10;88.40;;;;;;5051781;28;20414;-43
2023/06/27 05:54:02;;;;;;;5.63;3.13;;;16.40;88.40;;;;;;5052817;28;20017;-45
2023/06/27 05:56:27;;;;;;;8.23;3.92;;;16.80;88.10;;;;;;5052573;28;20032;-44
2023/06/27 05:58:53;;;;;;;11.25;3.85;;;17.20;87.40;;;;;;5052984;28;20020;-46
2023/06/27 06:01:23;;;;;;;9.63;3.03;;;17.50;85.50;;;;;;5052892;28;20028;-43
2023/06/27 06:03:49;;;;;;;10.30;2.20;;;17.80;84.20;;;;;;5053003;28;20055;-43
2023/06/27 06:06:16;;;;;;;9.98;2.78;;;17.90;81.90;;;;;;5052427;28;20408;-49
2023/06/27 06:08:42;;;;;;;9.00;2.80;;;17.90;81.90;;;;;;5052775;28;20025;-44
2023/06/27 06:11:08;;;;;;;8.63;3.00;;;18.00;81.90;;;;;;5049944;28;20037;-43
2023/06/27 06:13:36;;;;;;;9.52;3.08;;;18.20;81.20;;;;;;5032410;28;20037;-45
2023/06/27 06:16:03;;;;;;;6.88;2.42;;;18.20;80.40;;;;;;5032888;28;20359;-47
2023/06/27 06:18:32;;;;;;;8.27;2.70;;;18.50;79.30;;;;;;5032697;28;20046;-43
2023/06/27 06:20:58;;;;;;;8.90;2.28;;;18.30;79.20;;;;;;5032427;28;20025;-44
2023/06/27 06:23:24;;;;;;;8.77;2.75;;;18.40;79.30;;;;;;5031348;28;20053;-47
2023/06/27 06:25:51;;;;;;;9.35;2.55;;;18.70;79.00;;;;;;5032806;28;20061;-46
2023/06/27 06:28:16;;;;;;;8.18;2.80;;;18.80;78.90;;;;;;5031473;28;20033;-49
2023/06/27 06:30:44;;;;;;;7.60;2.65;;;18.90;78.00;;;;;;5031283;28;20371;-46
2023/06/27 06:33:11;;;;;;;7.53;2.72;;;18.90;78.50;;;;;;5033694;28;20076;-46
2023/06/27 06:35:37;;;;;;;7.18;1.90;;;19.10;79.10;;;;;;5035984;28;20033;-49
2023/06/27 06:38:03;;;;;;;9.27;2.25;;;19.20;77.20;;;;;;5036051;28;20033;-47
2023/06/27 06:40:30;;;;;;;10.27;2.38;;;19.20;75.80;;;;;;5035778;28;20477;-46
2023/06/27 06:42:57;;;;;;;11.90;2.17;;;19.20;75.90;;;;;;5035881;28;20474;-46
2023/06/27 06:45:24;;;;;;;7.57;2.35;;;19.10;76.80;;;;;;5034664;28;20500;-48
2023/06/27 06:47:51;;;;;;;7.45;2.00;;;19.00;77.00;;;;;;5035508;28;20112;-51
2023/06/27 06:50:20;;;;;;;10.05;1.95;;;18.70;76.10;;;;;;5035512;28;20160;-49
2023/06/27 06:52:48;;;;;;;6.50;1.80;;;18.60;74.50;;;;;;5035672;28;20022;-47
2023/06/27 06:55:14;;;;;;;6.13;1.60;;;18.60;74.20;;;;;;5035629;28;20031;-51
2023/06/27 06:57:41;;;;;;;6.05;1.98;;;18.50;74.60;;;;;;5034432;28;20022;-47
2023/06/27 07:00:07;;;;;;;7.38;1.65;;;18.40;75.10;;;;;;5035080;28;20029;-47
2023/06/27 07:02:34;;;;;;;8.43;1.45;;;18.70;73.30;;;;;;5033763;28;20026;-47
2023/06/27 07:05:01;;;;;;;8.20;1.50;;;19.10;72.10;;;;;;5035141;28;20037;-50
2023/06/27 07:07:29;;;;;;;11.70;2.53;;;19.40;71.80;;;;;;5035676;28;20021;-49
2023/06/27 07:09:55;;;;;;;5.05;1.27;;;19.60;69.60;;;;;;5034696;28;20033;-47
2023/06/27 07:12:22;;;;;;;5.80;1.30;;;19.60;67.10;;;;;;5031216;28;20493;-48
2023/06/27 07:14:50;;;;;;;8.48;1.25;;;19.80;66.90;;;;;;5034585;28;20450;-47
2023/06/27 07:17:18;;;;;;;8.75;1.25;;;19.80;67.30;;;;;;5034202;28;20033;-47
2023/06/27 07:19:46;;;;;;;8.55;2.47;;;20.00;67.10;;;;;;5035197;28;20513;-50
2023/06/27 07:22:16;;;;;;;6.90;1.50;;;20.20;65.50;;;;;;5035248;28;20416;-51
2023/06/27 07:24:47;;;;;;;7.53;1.88;;;20.20;65.80;;;;;;5035338;28;20040;-49
2023/06/27 07:27:14;;;;;;;6.95;1.85;;;20.30;64.10;;;;;;5034852;28;20021;-50
2023/06/27 07:29:43;;;;;;;8.82;1.40;;;20.10;66.00;;;;;;5017729;28;20034;-48
2023/06/27 07:32:11;;;;;;;4.50;1.85;;;20.30;64.70;;;;;;5035132;28;20037;-52
2023/06/27 07:34:39;;;;;;;6.60;1.40;;;20.40;64.60;;;;;;5035366;28;20144;-52
2023/06/27 07:37:06;;;;;;;8.05;2.55;;;20.70;62.80;;;;;;5035022;28;20097;-47
2023/06/27 07:39:33;;;;;;;4.32;1.45;;;20.90;62.80;;;;;;5034318;28;20025;-49
2023/06/27 07:42:00;;;;;;;7.55;1.23;;;21.40;62.80;;;;;;5034936;28;20675;-53
2023/06/27 07:44:26;;;;;;;3.65;1.33;;;21.10;61.30;;;;;;5033898;28;20037;-50
2023/06/27 07:46:52;;;;;;;8.23;2.03;;;20.20;63.20;;;;;;5034833;28;20109;-48
2023/06/27 07:49:17;;;;;;;5.18;1.30;;;20.00;64.10;;;;;;5034153;28;20300;-51
2023/06/27 07:51:49;;;;;;;5.82;1.30;;;20.30;64.90;;;;;;5034902;28;20037;-48
2023/06/27 07:54:16;;;;;;;7.53;1.20;;;20.20;62.40;;;;;;5034906;28;20037;-51
2023/06/27 07:56:42;;;;;;;4.53;1.20;;;19.80;63.40;;;;;;5026750;28;20837;-49
2023/06/27 07:59:08;;;;;;;9.48;1.85;;;19.70;64.20;;;;;;5033876;28;20025;-48
2023/06/27 08:01:36;;;;;;;6.03;1.38;;;19.80;64.20;;;;;;5035003;28;20068;-48
2023/06/27 08:04:03;;;;;;;8.75;1.42;;;20.40;64.30;;;;;;5034509;28;20026;-50
2023/06/27 08:06:31;;;;;;;5.70;2.00;;;20.90;62.70;;;;;;5034521;28;20049;-49
2023/06/27 08:09:00;;;;;;;7.97;1.13;;;21.00;62.50;;;;;;5017245;28;20486;-48
2023/06/27 08:11:27;;;;;;;6.57;1.50;;;20.40;60.20;;;;;;5034391;28;20018;-50
2023/06/27 08:13:55;;;;;;;4.95;1.25;;;20.00;62.90;;;;;;5034332;28;20061;-51
2023/06/27 08:16:22;;;;;;;3.60;1.20;;;20.30;61.90;;;;;;5034543;28;20017;-48
2023/06/27 08:18:50;;;;;;;6.30;1.50;;;21.00;60.90;;;;;;5034637;28;20029;-50
2023/06/27 08:21:16;;;;;;;3.83;1.20;;;20.90;60.30;;;;;;5034635;28;20030;-49
2023/06/27 08:23:46;;;;;;;4.70;1.10;;;20.70;59.90;;;;;;5016899;28;20079;-50
2023/06/27 08:26:17;;;;;;;5.43;1.23;;;21.30;59.60;;;;;;5033324;28;20022;-53
2023/06/27 08:28:45;;;;;;;4.28;1.25;;;21.50;58.70;;;;;;5033288;28;20049;-48
2023/06/27 08:31:12;;;;;;;4.65;1.42;;;21.90;57.30;;;;;;5033810;28;20037;-49
2023/06/27 08:33:39;;;;;;;4.07;1.33;;;21.50;57.30;;;;;;5033010;28;20033;-52
2023/06/27 08:36:06;;;;;;;5.47;1.27;;;21.00;59.80;;;;;;5033971;28;20328;-54
2023/06/27 08:38:34;;;;;;;5.85;1.38;;;20.80;59.80;;;;;;5033956;28;20021;-50
2023/06/27 08:41:04;;;;;;;5.25;1.50;;;21.10;57.50;;;;;;5034024;28;20017;-50
2023/06/27 08:43:33;;;;;;;;;;;21.40;59.00;;;;;;5034587;28;20040;-50
2023/06/27 08:46:00;;;;;;;5.47;1.52;;;21.40;57.50;;;;;;5033909;28;19905;-52
2023/06/27 08:48:27;;;;;;;3.15;1.17;;;21.40;58.50;;;;;;5032796;28;20063;-49
2023/06/27 08:51:00;;;;;;;6.55;1.65;;;21.40;59.50;;;;;;5033852;28;20025;-51
2023/06/27 08:53:28;;;;;;;5.82;1.20;;;21.40;58.20;;;;;;5033730;28;20043;-50
2023/06/27 08:56:04;;;;;;;3.85;1.00;;;20.90;58.40;;;;;;5032430;28;20029;-52
2023/06/27 08:58:49;;;;;;;3.45;0.88;;;21.20;57.00;;;;;;5033495;28;20021;-50
2023/06/27 09:01:16;;;;;;;4.32;0.95;;;21.50;57.10;;;;;;5016462;28;20029;-51
2023/06/27 09:03:44;;;;;;;9.00;2.38;;;21.30;57.40;;;;;;5033364;28;20017;-49
2023/06/27 09:06:17;;;;;;;4.50;1.10;;;21.70;57.50;;;;;;5033023;28;20100;-50
2023/06/27 09:08:48;;;;;;;6.70;1.40;;;22.20;56.80;;;;;;5033321;28;20029;-48
2023/06/27 09:11:18;;;;;;;4.10;1.20;;;22.90;56.30;;;;;;5013685;28;20037;-51
2023/06/27 09:13:45;;;;;;;;;;;22.10;55.50;;;;;;5032757;28;20049;-52
2023/06/27 09:16:12;;;;;;;5.38;1.10;;;22.10;57.20;;;;;;5015855;28;20269;-52
2023/06/27 09:18:40;;;;;;;6.80;1.38;;;22.00;56.30;;;;;;5015835;28;20042;-51
2023/06/27 09:21:07;;;;;;;6.88;1.85;;;22.20;57.30;;;;;;5032250;28;20021;-49
2023/06/27 09:23:34;;;;;;;4.85;1.45;;;22.20;57.50;;;;;;5032582;28;20108;-50
2023/06/27 09:26:11;;;;;;;5.38;1.10;;;22.80;55.60;;;;;;5033231;28;20031;-50
2023/06/27 09:28:51;;;;;;;5.35;1.58;;;23.10;55.00;;;;;;5032606;28;20099;-55
2023/06/27 09:31:24;;;;;;;4.55;1.05;;;22.30;55.70;;;;;;5032894;28;20061;-48
2023/06/27 09:33:50;;;;;;;3.97;0.90;;;22.50;55.70;;;;;;5031961;28;20113;-50
2023/06/27 09:36:38;;;;;;;6.00;1.45;;;22.80;55.50;;;;;;5031778;28;20025;-50
2023/06/27 09:39:07;;;;;;;5.72;1.77;;;22.60;56.70;;;;;;5027475;28;20025;-51
2023/06/27 09:41:52;;;;;;;7.40;1.80;;;22.50;54.90;;;;;;5031675;28;20075;-49
2023/06/27 09:44:21;;;;;;;4.70;1.60;;;22.60;56.90;;;;;;5031789;28;20370;-54
2023/06/27 09:46:51;;;;;;;4.20;1.25;;;22.70;57.40;;;;;;5031653;28;20115;-53
2023/06/27 09:49:19;;;;;;;5.05;1.50;;;22.70;55.50;;;;;;5032572;28;20105;-54
2023/06/27 09:51:50;;;;;;;4.97;1.58;;;22.60;56.40;;;;;;5032033;28;20029;-51
2023/06/27 09:54:21;;;;;;;8.57;1.67;;;23.10;53.80;;;;;;5032652;28;20100;-53
2023/06/27 09:56:51;;;;;;;5.18;1.15;;;23.10;54.80;;;;;;5031832;28;20038;-50
2023/06/27 09:59:37;;;;;;;5.47;1.45;;;23.30;53.00;;;;;;5031711;28;20049;-54
2023/06/27 10:02:02;;;;;;;6.13;1.23;;;23.40;54.60;;;;;;5032216;28;20049;-49
2023/06/27 10:04:31;;;;;;;9.50;1.98;;;23.50;54.20;;;;;;5032859;28;20041;-53
2023/06/27 10:06:59;;;;;;;8.70;1.42;;;23.70;54.50;;;;;;5033047;28;20112;-56
2023/06/27 10:09:25;;;;;;;3.83;1.25;;;22.90;54.10;;;;;;5036006;28;20034;-54
2023/06/27 10:11:52;;;;;;;5.72;1.55;;;22.90;55.30;;;;;;5036161;28;20056;-52
2023/06/27 10:14:20;;;;;;;4.80;1.23;;;23.20;54.40;;;;;;5036296;28;20029;-51
2023/06/27 10:16:49;;;;;;;6.05;1.40;;;23.60;55.60;;;;;;5036189;28;20037;-52
2023/06/27 10:19:16;;;;;;;5.37;1.33;;;23.80;52.40;;;;;;5035576;28;20033;-51
2023/06/27 10:21:42;;;;;;;8.27;1.52;;;23.90;53.70;;;;;;5036552;28;20271;-53
2023/06/27 10:24:10;;;;;;;6.10;1.65;;;23.80;52.60;;;;;;5035645;28;20029;-49
2023/06/27 10:26:37;;;;;;;5.80;1.63;;;23.40;54.00;;;;;;5036580;28;20347;-49
2023/06/27 10:29:18;;;;;;;5.75;1.50;;;22.70;55.70;;;;;;5036773;28;20045;-52
2023/06/27 10:31:45;;;;;;;6.18;1.23;;;22.40;57.80;;;;;;5036298;28;20489;-53
2023/06/27 10:34:28;;;;;;;5.70;1.55;;;22.20;57.80;;;;;;5036067;28;20103;-49
2023/06/27 10:37:25;;;;;;;8.48;1.73;;;22.40;57.30;;;;;;5035764;28;20020;-53
2023/06/27 10:39:56;;;;;;;5.35;1.63;;;22.20;56.50;;;;;;5035417;28;20455;-49
2023/06/27 10:42:24;;;;;;;7.03;1.73;;;21.80;58.30;;;;;;5036471;28;20026;-53
2023/06/27 10:45:10;;;;;;;3.47;1.15;;;21.90;58.70;;;;;;5036198;28;20033;-54
2023/06/27 10:47:46;;;;;;;7.47;2.13;;;22.20;57.10;;;;;;5036361;28;20029;-50
2023/06/27 10:50:21;;;;;;;6.13;1.27;;;22.50;56.20;;;;;;5036131;28;20133;-54
2023/06/27 10:53:01;;;;;;;8.80;1.45;;;22.90;54.40;;;;;;5034803;28;20044;-50
2023/06/27 10:55:30;;;;;;;9.48;2.03;;;22.30;55.70;;;;;;5036022;28;20105;-53
2023/06/27 10:58:10;;;;;;;5.43;1.30;;;22.00;57.70;;;;;;5018740;28;20466;-51
2023/06/27 11:00:41;;;;;;;;;;;21.60;56.30;;;;;;5035349;28;20053;-55
2023/06/27 11:03:09;;;;;;;5.57;1.30;;;21.30;58.20;;;;;;5018523;28;19917;-50
2023/06/27 11:05:51;;;;;;;7.93;1.63;;;21.80;58.80;;;;;;5032846;28;20045;-49
2023/06/27 11:08:20;;;;;;;5.45;1.55;;;22.10;59.20;;;;;;5035719;28;20029;-51
2023/06/27 11:11:08;;;;;;;4.28;1.25;;;22.00;58.40;;;;;;5018244;28;20063;-53
2023/06/27 11:13:45;;;;;;;8.88;1.52;;;22.00;59.00;;;;;;5053185;28;20095;-52
2023/06/27 11:16:12;;;;;;;4.40;1.55;;;22.20;59.10;;;;;;5037779;28;20026;-50
2023/06/27 11:18:38;;;;;;;7.88;2.05;;;21.90;56.90;;;;;;5055268;28;20025;-49
2023/06/27 11:21:08;;;;;;;4.95;1.50;;;21.70;59.00;;;;;;5055607;28;20033;-53
2023/06/27 11:23:35;;;;;;;5.32;1.23;;;22.30;58.60;;;;;;5054488;28;20072;-49
2023/06/27 11:26:05;;;;;;;5.28;1.67;;;22.30;56.20;;;;;;5055112;28;20049;-52
2023/06/27 11:28:36;;;;;;;6.10;1.83;;;22.10;55.20;;;;;;5055232;28;20025;-50
2023/06/27 11:31:01;;;;;;;6.70;2.15;;;21.70;57.70;;;;;;5055079;28;20049;-52
2023/06/27 11:33:28;;;;;;;7.40;1.58;;;22.20;58.20;;;;;;5054319;28;20076;-51
2023/06/27 11:35:59;;;;;;;8.73;1.77;;;22.20;59.00;;;;;;5021189;28;20037;-51
2023/06/27 11:38:28;;;;;;;7.35;1.50;;;22.10;55.80;;;;;;5054238;28;20036;-50
2023/06/27 11:40:57;;;;;;;4.60;1.63;;;22.10;56.90;;;;;;5054112;28;20021;-50
2023/06/27 11:43:30;;;;;;;4.53;1.27;;;22.40;57.00;;;;;;5055154;28;20109;-51
2023/06/27 11:45:58;;;;;;;7.28;2.17;;;22.50;56.30;;;;;;5055064;28;20086;-50
2023/06/27 11:48:27;;;;;;;4.93;1.52;;;22.40;57.20;;;;;;5053940;28;20048;-53
2023/06/27 11:51:12;;;;;;;4.47;1.40;;;22.30;57.00;;;;;;5037188;28;20041;-51
2023/06/27 11:53:49;;;;;;;8.75;2.00;;;22.30;56.90;;;;;;5054780;28;20021;-52
2023/06/27 11:56:19;;;;;;;6.18;1.33;;;21.90;58.90;;;;;;5054086;28;20025;-50
2023/06/27 11:58:50;;;;;;;4.68;1.40;;;21.50;59.10;;;;;;5037345;28;20029;-55
2023/06/27 12:01:42;;;;;;;5.70;1.20;;;21.80;58.70;;;;;;5054337;28;20419;-50
2023/06/27 12:04:18;;;;;;;4.78;1.27;;;21.60;59.30;;;;;;5054820;28;20025;-50
2023/06/27 12:06:48;;;;;;;4.70;1.30;;;21.80;57.00;;;;;;5054396;28;20044;-50
2023/06/27 12:09:29;;;;;;;;;;;21.70;60.40;;;;;;5055280;28;20126;-51
2023/06/27 12:11:59;;;;;;;6.03;1.50;;;22.20;57.10;;;;;;5048029;28;19968;-52
2023/06/27 12:14:28;;;;;;;3.80;1.60;;;22.10;56.40;;;;;;5017042;28;20380;-53
2023/06/27 12:16:56;;;;;;;7.80;1.77;;;21.90;58.30;;;;;;5034425;28;20339;-50
2023/06/27 12:19:24;;;;;;;5.85;1.70;;;22.00;60.40;;;;;;5034754;28;20057;-55
2023/06/27 12:21:55;;;;;;;6.35;1.90;;;21.90;58.90;;;;;;5034164;28;20029;-51
2023/06/27 12:24:24;;;;;;;6.38;1.33;;;21.40;58.90;;;;;;5033488;28;20117;-52
2023/06/27 12:26:51;;;;;;;5.53;1.30;;;21.50;58.40;;;;;;5033410;28;20053;-54
2023/06/27 12:29:18;;;;;;;6.80;1.65;;;21.30;61.10;;;;;;5016600;28;20048;-50
2023/06/27 12:31:46;;;;;;;7.45;1.67;;;21.40;60.20;;;;;;5033108;28;20132;-52
2023/06/27 12:34:14;;;;;;;7.35;1.80;;;21.70;60.10;;;;;;5033655;28;20451;-55
2023/06/27 12:36:41;;;;;;;9.50;2.00;;;22.00;57.30;;;;;;5016161;28;20036;-55
2023/06/27 12:39:07;;;;;;;12.02;3.17;;;22.30;59.70;;;;;;5033934;28;20414;-51
2023/06/27 12:41:34;;;;;;;7.72;2.13;;;21.80;60.30;;;;;;5032587;28;20454;-48
2023/06/27 12:44:03;;;;;;;7.28;2.30;;;20.90;63.10;;;;;;5034246;28;20385;-52
2023/06/27 12:46:31;;;;;;;7.68;1.60;;;20.90;65.60;;;;;;5034220;28;20112;-48
2023/06/27 12:48:57;;;;;;;13.88;2.85;;;21.20;64.00;;;;;;5032853;28;20053;-50
2023/06/27 12:51:28;;;;;;;8.88;2.25;;;21.20;64.90;;;;;;5034223;28;20335;-52
2023/06/27 12:53:56;;;;;;;6.75;1.50;;;21.40;64.30;;;;;;5033993;28;20124;-51
2023/06/27 12:56:21;;;;;;;10.07;2.83;;;21.40;63.00;;;;;;5032716;28;20034;-51
2023/06/27 12:58:50;;;;;;;8.82;2.20;;;21.00;64.80;;;;;;5032694;28;20879;-49